Time;durP1;ratioP1;P1;durP2;ratioP2;P2;SDS_P1;SDS_P2;PMS_P1;PMS_P2;Temp;Humidity;BMP_temperature;BMP_pressure;BME280_temperature;BME280_humidity;BME280_pressure;Samples;Min_cycle;Max_cycle;Signal;HPM_P1;HPM_P2
2022/12/05 00:01:23;;;;;;;46.85;19.13;;;;;;;0.80;100.00;100851.91;6308579;28;20051;-89
2022/12/05 00:04:25;;;;;;;51.17;19.83;;;;;;;0.78;100.00;100848.56;6308506;28;20166;-89
2022/12/05 00:07:27;;;;;;;49.75;19.65;;;;;;;0.78;100.00;100857.94;6307450;28;20508;-89
2022/12/05 00:10:29;;;;;;;50.05;20.35;;;;;;;0.78;100.00;100848.56;6308009;28;20118;-89
2022/12/05 00:13:31;;;;;;;45.60;19.85;;;;;;;0.87;100.00;100842.34;6306498;28;20608;-89
2022/12/05 00:16:35;;;;;;;57.25;20.95;;;;;;;0.81;100.00;100843.34;6304104;28;20043;-89
2022/12/05 00:19:38;;;;;;;47.35;18.95;;;;;;;0.80;100.00;100838.34;6308653;28;20044;-89
2022/12/05 00:22:40;;;;;;;55.17;21.90;;;;;;;0.80;100.00;100840.88;6309182;28;20414;-89
2022/12/05 00:25:41;;;;;;;47.50;19.20;;;;;;;0.82;100.00;100841.63;6304524;28;20040;-89
2022/12/05 00:28:44;;;;;;;49.08;20.33;;;;;;;0.79;100.00;100834.94;6308218;28;20044;-89
2022/12/05 00:31:45;;;;;;;54.50;20.42;;;;;;;0.85;100.00;100839.00;6307875;28;20502;-89
2022/12/05 00:34:47;;;;;;;49.13;20.80;;;;;;;0.82;100.00;100839.94;6308077;28;20035;-89
2022/12/05 00:37:49;;;;;;;43.92;18.83;;;;;;;0.83;100.00;100836.50;6300575;28;20040;-89
2022/12/05 00:40:51;;;;;;;44.42;20.08;;;;;;;0.82;100.00;100837.41;6302886;28;20051;-89
2022/12/05 00:43:54;;;;;;;49.53;21.08;;;;;;;0.87;100.00;100837.25;6312570;28;20044;-89
2022/12/05 00:46:56;;;;;;;42.30;19.75;;;;;;;0.84;100.00;100843.25;6304836;28;20049;-89
2022/12/05 00:49:58;;;;;;;48.45;19.33;;;;;;;0.85;100.00;100847.47;6310698;28;20033;-89
2022/12/05 00:53:00;;;;;;;52.90;20.25;;;;;;;0.87;100.00;100842.34;6312764;28;20111;-89
2022/12/05 00:56:08;;;;;;;49.13;20.50;;;;;;;0.89;100.00;100838.00;6311145;28;20032;-89
2022/12/05 00:59:19;;;;;;;45.80;18.55;;;;;;;0.86;100.00;100843.22;6311281;28;20042;-89
2022/12/05 01:02:21;;;;;;;;;;;;;;;0.89;100.00;100840.56;6313198;28;20044;-90
2022/12/05 01:05:23;;;;;;;43.60;18.42;;;;;;;0.96;100.00;100831.81;6311629;28;20484;-90
2022/12/05 01:08:25;;;;;;;48.28;18.95;;;;;;;0.92;100.00;100839.63;6311211;28;20053;-89
2022/12/05 01:11:28;;;;;;;46.38;20.25;;;;;;;0.91;100.00;100832.88;6304248;28;20047;-89
2022/12/05 01:14:30;;;;;;;43.45;19.50;;;;;;;0.91;100.00;100830.31;6293896;28;20029;-89
2022/12/05 01:17:31;;;;;;;44.72;19.48;;;;;;;0.95;100.00;100837.00;6312561;28;20047;-89
2022/12/05 01:20:33;;;;;;;49.00;19.92;;;;;;;0.92;100.00;100835.38;6312452;28;20044;-89
2022/12/05 01:23:35;;;;;;;44.22;18.48;;;;;;;0.92;100.00;100827.72;6308943;28;20432;-89
2022/12/05 01:26:37;;;;;;;43.78;18.80;;;;;;;0.95;100.00;100824.25;6298519;28;20032;-89
2022/12/05 01:29:38;;;;;;;42.78;19.67;;;;;;;0.94;100.00;100831.03;6312193;28;20044;-89
2022/12/05 01:32:41;;;;;;;45.03;18.70;;;;;;;0.94;100.00;100827.66;6311107;28;20036;-89
2022/12/05 01:35:43;;;;;;;44.60;18.70;;;;;;;0.93;100.00;100826.84;6309051;28;20542;-89
2022/12/05 01:38:45;;;;;;;44.17;18.60;;;;;;;0.92;100.00;100827.72;6292789;28;20040;-89
2022/12/05 01:41:49;;;;;;;42.65;19.13;;;;;;;0.93;100.00;100824.28;6311228;28;20047;-89
2022/12/05 01:44:50;;;;;;;40.55;17.70;;;;;;;0.95;100.00;100824.25;6310164;28;20040;-89
2022/12/05 01:47:53;;;;;;;43.08;17.30;;;;;;;1.00;100.00;100822.38;6309912;28;20040;-89
2022/12/05 01:50:57;;;;;;;44.13;18.35;;;;;;;0.98;100.00;100824.13;6308330;28;20317;-90
2022/12/05 01:54:00;;;;;;;47.05;19.10;;;;;;;0.93;100.00;100820.91;6310993;28;20045;-89
2022/12/05 01:57:06;;;;;;;41.65;18.92;;;;;;;0.94;100.00;100823.38;6310280;28;20039;-89
2022/12/05 02:00:17;;;;;;;36.85;16.60;;;;;;;0.92;100.00;100822.63;6296558;28;20504;-89
2022/12/05 02:03:21;;;;;;;37.70;16.70;;;;;;;0.92;100.00;100815.00;6308082;28;20040;-89
2022/12/05 02:06:26;;;;;;;44.58;18.15;;;;;;;0.94;100.00;100823.38;6305168;28;20146;-90
2022/12/05 02:09:27;;;;;;;42.13;18.38;;;;;;;0.95;100.00;100812.31;6310918;28;20032;-90
2022/12/05 02:12:29;;;;;;;36.70;17.40;;;;;;;0.99;100.00;100813.03;6310569;28;20105;-90
2022/12/05 02:15:37;;;;;;;38.10;18.42;;;;;;;0.95;100.00;100809.78;6297623;28;20036;-90
2022/12/05 02:18:50;;;;;;;38.22;16.20;;;;;;;0.96;100.00;100815.69;6308584;28;20076;-90
2022/12/05 02:22:22;;;;;;;37.28;17.08;;;;;;;0.95;100.00;100807.22;6307644;28;20051;-90
2022/12/05 02:25:30;;;;;;;36.88;16.83;;;;;;;0.98;100.00;100814.75;6303637;28;20505;-89
2022/12/05 02:29:12;;;;;;;41.53;17.23;;;;;;;1.00;100.00;100812.16;6303283;28;20032;-89
2022/12/05 02:32:51;;;;;;;34.85;15.55;;;;;;;0.99;100.00;100813.03;6307336;28;20573;-89
2022/12/05 02:36:06;;;;;;;35.42;16.83;;;;;;;0.99;100.00;100811.31;6309854;28;20055;-89
2022/12/05 02:39:31;;;;;;;41.67;17.17;;;;;;;0.96;100.00;100805.50;6309886;28;20062;-89
2022/12/05 02:42:53;;;;;;;36.17;16.55;;;;;;;0.98;100.00;100798.66;6309293;28;20085;-89
2022/12/05 02:45:59;;;;;;;34.85;16.00;;;;;;;0.99;100.00;100803.66;6297758;28;20275;-89
2022/12/05 02:49:16;;;;;;;28.70;14.90;;;;;;;0.96;100.00;100800.41;6306593;28;20241;-89
2022/12/05 02:52:18;;;;;;;34.45;15.13;;;;;;;0.97;100.00;100805.47;6303387;28;20043;-89
2022/12/05 02:55:22;;;;;;;32.92;14.73;;;;;;;1.03;100.00;100799.31;6309410;28;20433;-89
2022/12/05 02:58:32;;;;;;;32.38;15.52;;;;;;;1.00;100.00;100804.53;6306506;28;20048;-89
2022/12/05 03:01:34;;;;;;;34.08;14.13;;;;;;;1.00;100.00;100802.81;6300978;28;20098;-89
2022/12/05 03:04:36;;;;;;;35.80;15.68;;;;;;;1.02;100.00;100807.84;6295206;28;20043;-89
2022/12/05 03:07:41;;;;;;;33.63;14.93;;;;;;;1.02;100.00;100800.22;6307740;28;20032;-89
2022/12/05 03:10:44;;;;;;;30.95;14.30;;;;;;;1.03;100.00;100796.75;6298648;28;20206;-89
2022/12/05 03:13:57;;;;;;;34.00;16.40;;;;;;;1.01;100.00;100796.81;6289206;28;20044;-89
2022/12/05 03:17:02;;;;;;;34.42;15.23;;;;;;;1.02;100.00;100801.03;6306289;28;20047;-89
2022/12/05 03:20:10;;;;;;;35.25;14.50;;;;;;;1.00;100.00;100797.69;6303987;28;20131;-89
2022/12/05 03:23:22;;;;;;;29.60;14.52;;;;;;;1.02;100.00;100805.31;6303672;28;20413;-89
2022/12/05 03:27:04;;;;;;;29.75;14.48;;;;;;;1.00;100.00;100797.69;6299651;28;20398;-89
2022/12/05 03:30:09;;;;;;;31.27;13.30;;;;;;;1.03;100.00;100804.41;6193649;28;20368;-89
2022/12/05 03:33:17;;;;;;;25.08;13.63;;;;;;;1.04;100.00;100803.50;6198495;28;20061;-89
2022/12/05 03:36:27;;;;;;;28.60;14.18;;;;;;;1.05;100.00;100813.66;6204326;28;20120;-89
2022/12/05 03:39:34;;;;;;;34.70;14.65;;;;;;;1.04;100.00;100812.00;6205193;28;20052;-89
2022/12/05 03:42:42;;;;;;;33.58;14.63;;;;;;;1.05;100.00;100806.03;6199622;28;20186;-89
2022/12/05 03:45:50;;;;;;;33.38;14.88;;;;;;;1.06;100.00;100801.75;6177887;28;20420;-89
2022/12/05 03:48:59;;;;;;;28.00;13.40;;;;;;;1.05;100.00;100792.44;6180654;28;20335;-89
2022/12/05 03:52:16;;;;;;;32.80;13.82;;;;;;;1.04;100.00;100800.97;6178159;28;20046;-89
2022/12/05 03:55:19;;;;;;;28.33;14.30;;;;;;;1.00;100.00;100805.34;6200854;28;20045;-89
2022/12/05 03:58:33;;;;;;;27.95;13.65;;;;;;;1.03;100.00;100792.50;6186741;28;20049;-89
2022/12/05 04:01:38;;;;;;;28.40;14.27;;;;;;;1.04;100.00;100795.88;6204495;28;20046;-88
2022/12/05 04:04:53;;;;;;;29.77;14.02;;;;;;;1.03;100.00;100792.50;6208613;28;20534;-88
2022/12/05 04:08:03;;;;;;;30.33;13.85;;;;;;;1.06;100.00;100791.56;6311054;28;20501;-88
2022/12/05 04:11:11;;;;;;;29.77;13.35;;;;;;;1.03;100.00;100787.41;6311674;28;20040;-88
2022/12/05 04:14:39;;;;;;;25.95;13.50;;;;;;;1.05;100.00;100782.25;6305030;28;20502;-88
2022/12/05 04:17:53;;;;;;;27.13;14.15;;;;;;;1.04;100.00;100780.56;6252441;28;20065;-88
2022/12/05 04:28:07;;;;;;;28.88;12.43;;;;;;;1.04;100.00;100776.34;6260974;28;20060;-88
2022/12/05 04:31:21;;;;;;;27.42;12.60;;;;;;;1.00;100.00;100781.59;6254651;28;20649;-89
2022/12/05 04:34:28;;;;;;;23.83;11.70;;;;;;;1.02;100.00;100775.53;6260751;28;20060;-89
2022/12/05 04:37:34;;;;;;;24.63;13.45;;;;;;;1.04;100.00;100772.94;6223285;28;20455;-89
2022/12/05 04:40:43;;;;;;;24.25;12.82;;;;;;;1.03;100.00;100772.09;6271802;28;20095;-89
2022/12/05 04:43:46;;;;;;;26.02;12.27;;;;;;;1.04;100.00;100772.94;6263512;28;20071;-89
2022/12/05 04:46:50;;;;;;;26.10;12.55;;;;;;;1.03;100.00;100771.28;6262908;28;20049;-89
2022/12/05 04:49:54;;;;;;;23.23;12.13;;;;;;;1.02;100.00;100770.44;6243020;28;20057;-89
2022/12/05 04:52:59;;;;;;;20.00;11.57;;;;;;;1.05;100.00;100769.50;6255402;28;20049;-89
2022/12/05 04:56:04;;;;;;;26.15;13.18;;;;;;;1.07;100.00;100771.13;6309030;28;20043;-89
2022/12/05 04:59:05;;;;;;;19.85;10.75;;;;;;;1.03;100.00;100772.09;6314724;28;20032;-89
2022/12/05 05:02:09;;;;;;;21.17;11.52;;;;;;;1.02;100.00;100767.06;6313697;28;20052;-89
2022/12/05 05:05:15;;;;;;;20.65;11.05;;;;;;;1.05;100.00;100770.34;6314400;28;20405;-89
2022/12/05 05:08:27;;;;;;;23.95;11.02;;;;;;;1.05;100.00;100769.50;6312559;28;20112;-88
2022/12/05 05:11:32;;;;;;;23.58;11.38;;;;;;;1.03;100.00;100766.19;6313223;28;20031;-88
2022/12/05 05:14:34;;;;;;;25.80;11.75;;;;;;;1.06;100.00;100774.53;6307036;28;20037;-88
2022/12/05 05:17:36;;;;;;;21.35;10.77;;;;;;;1.03;100.00;100773.81;6314569;28;20074;-88
2022/12/05 05:20:38;;;;;;;22.02;11.50;;;;;;;1.00;100.00;100771.38;6313870;28;20557;-89
2022/12/05 05:23:40;;;;;;;24.88;11.90;;;;;;;1.04;100.00;100773.78;6309346;28;20039;-89
2022/12/05 05:26:44;;;;;;;22.52;10.90;;;;;;;1.01;100.00;100773.03;6313731;28;20498;-89
2022/12/05 05:29:45;;;;;;;24.58;12.27;;;;;;;1.05;100.00;100777.97;6314181;28;20048;-89
2022/12/05 05:32:48;;;;;;;23.88;11.95;;;;;;;0.97;100.00;100771.47;6308171;28;20523;-88
2022/12/05 05:35:50;;;;;;;21.80;11.23;;;;;;;0.95;100.00;100776.66;6307146;28;20530;-88
2022/12/05 05:38:54;;;;;;;27.80;13.45;;;;;;;0.88;100.00;100766.72;6311786;28;20130;-88
2022/12/05 05:41:55;;;;;;;22.75;11.43;;;;;;;0.90;100.00;100767.50;6313086;28;20051;-88
2022/12/05 05:44:57;;;;;;;22.60;10.27;;;;;;;0.88;100.00;100776.91;6313144;28;20132;-87
2022/12/05 05:47:59;;;;;;;22.92;11.13;;;;;;;0.83;100.00;100783.00;6313091;28;20042;-88
2022/12/05 05:51:04;;;;;;;18.92;10.65;;;;;;;0.89;100.00;100787.03;6311850;28;20595;-88
2022/12/05 05:54:08;;;;;;;20.63;11.13;;;;;;;0.88;100.00;100782.00;6308026;28;20051;-88
2022/12/05 05:57:09;;;;;;;20.52;10.85;;;;;;;0.87;100.00;100788.84;6294903;28;20036;-88
2022/12/05 06:00:15;;;;;;;25.42;11.60;;;;;;;0.81;100.00;100783.94;6312744;28;20040;-88
2022/12/05 06:03:16;;;;;;;18.05;10.25;;;;;;;0.84;100.00;100781.28;6313404;28;20472;-88
2022/12/05 06:06:20;;;;;;;23.58;10.63;;;;;;;0.86;100.00;100782.88;6312479;28;21184;-88
2022/12/05 06:09:22;;;;;;;20.58;10.65;;;;;;;0.89;100.00;100786.22;6304741;28;20131;-88
2022/12/05 06:12:23;;;;;;;22.05;10.82;;;;;;;0.91;100.00;100781.91;6307932;28;20036;-89
2022/12/05 06:15:26;;;;;;;23.33;10.65;;;;;;;0.92;100.00;100788.66;6312142;28;20047;-90
2022/12/05 06:18:27;;;;;;;18.77;10.13;;;;;;;0.92;100.00;100773.34;6307458;28;20040;-90
2022/12/05 06:21:29;;;;;;;20.80;10.07;;;;;;;0.92;100.00;100776.75;6311234;28;20309;-90
2022/12/05 06:24:31;;;;;;;22.55;10.13;;;;;;;0.93;100.00;100785.22;6301872;28;20044;-90
2022/12/05 06:27:33;;;;;;;21.73;10.27;;;;;;;0.96;100.00;100785.13;6306387;28;20074;-90
2022/12/05 06:30:37;;;;;;;19.45;10.68;;;;;;;0.93;100.00;100780.97;6311875;28;20044;-90
2022/12/05 06:33:39;;;;;;;26.17;10.57;;;;;;;0.97;100.00;100784.22;6306836;28;20036;-90
2022/12/05 06:36:40;;;;;;;19.30;10.55;;;;;;;1.01;100.00;100783.25;6310779;28;20363;-91
2022/12/05 06:39:42;;;;;;;21.40;10.45;;;;;;;0.99;100.00;100779.91;6310779;28;20486;-91
2022/12/05 06:42:44;;;;;;;19.25;9.73;;;;;;;0.95;100.00;100786.84;6312642;28;20051;-90
2022/12/05 06:45:46;;;;;;;17.63;10.10;;;;;;;0.97;100.00;100785.06;6307223;28;20452;-90
2022/12/05 06:48:50;;;;;;;22.27;10.25;;;;;;;0.95;100.00;100789.38;6308077;28;20791;-90
2022/12/05 06:51:52;;;;;;;20.17;10.65;;;;;;;0.95;100.00;100781.75;6293128;28;20044;-90
2022/12/05 06:54:54;;;;;;;21.25;11.93;;;;;;;0.99;100.00;100787.56;6312418;28;20040;-90
2022/12/05 06:57:56;;;;;;;17.75;9.45;;;;;;;0.95;100.00;100789.38;6310978;28;20504;-89
2022/12/05 07:04:25;;;;;;;17.48;10.05;;;;;;;0.75;100.00;100796.91;6308203;28;20145;-90
2022/12/05 07:07:28;;;;;;;18.65;10.05;;;;;;;0.72;100.00;100808.03;6308738;28;20039;-91
2022/12/05 07:10:30;;;;;;;16.60;9.43;;;;;;;0.74;100.00;100802.84;6302505;28;20130;-90
2022/12/05 07:13:32;;;;;;;18.27;9.73;;;;;;;0.76;100.00;100796.00;6311608;28;20039;-90
2022/12/05 07:16:35;;;;;;;18.17;10.18;;;;;;;0.78;100.00;100792.50;6312187;28;20059;-90
2022/12/05 07:19:36;;;;;;;17.08;9.43;;;;;;;0.81;100.00;100799.22;6295791;28;20043;-90
2022/12/05 07:22:38;;;;;;;17.08;9.70;;;;;;;0.85;100.00;100800.78;6304240;28;20051;-90
2022/12/05 07:25:40;;;;;;;16.35;9.55;;;;;;;0.88;100.00;100803.22;6310885;28;20036;-90
2022/12/05 07:28:42;;;;;;;17.83;9.70;;;;;;;0.86;100.00;100798.16;6307961;28;20119;-90
2022/12/05 07:31:44;;;;;;;21.83;9.52;;;;;;;0.93;100.00;100808.16;6308682;28;20090;-90
2022/12/05 07:34:46;;;;;;;17.67;10.30;;;;;;;0.91;100.00;100807.38;6305468;28;20137;-90
2022/12/05 07:37:55;;;;;;;20.77;10.80;;;;;;;0.90;100.00;100805.72;6305501;28;20248;-90
2022/12/05 07:40:57;;;;;;;14.63;8.90;;;;;;;0.89;100.00;100804.88;6309026;28;20219;-91
2022/12/05 07:43:59;;;;;;;17.67;9.52;;;;;;;0.91;100.00;100808.22;6309634;28;20059;-90
2022/12/05 07:47:01;;;;;;;19.52;9.77;;;;;;;0.95;100.00;100809.78;6311771;28;20044;-90
2022/12/05 07:50:04;;;;;;;16.25;8.95;;;;;;;0.99;100.00;100811.31;6316834;28;20055;-90
2022/12/05 07:53:05;;;;;;;14.80;9.18;;;;;;;0.98;100.00;100814.75;6314732;28;20072;-89
2022/12/05 07:56:08;;;;;;;16.58;9.43;;;;;;;1.03;100.00;100810.34;6313577;28;20044;-90
2022/12/05 07:59:11;;;;;;;18.98;9.68;;;;;;;1.00;100.00;100807.91;6305497;28;20474;-90
2022/12/05 08:02:12;;;;;;;15.10;8.48;;;;;;;1.07;100.00;100816.19;6316215;28;20127;-90
2022/12/05 08:05:14;;;;;;;18.55;9.70;;;;;;;1.10;100.00;100810.13;6313730;28;20106;-90
2022/12/05 08:08:16;;;;;;;15.73;8.63;;;;;;;1.09;100.00;100806.72;6312613;28;20055;-90
2022/12/05 08:11:29;;;;;;;12.77;8.27;;;;;;;1.13;100.00;100810.84;6315078;28;20136;-89
2022/12/05 08:14:31;;;;;;;16.65;9.18;;;;;;;1.17;100.00;100816.66;6314075;28;20506;-89
2022/12/05 08:17:33;;;;;;;14.02;8.50;;;;;;;1.16;100.00;100813.28;6314102;28;20524;-90
2022/12/05 08:20:35;;;;;;;13.88;8.45;;;;;;;1.18;100.00;100818.34;6302729;28;20075;-90
2022/12/05 08:23:38;;;;;;;16.65;8.48;;;;;;;1.22;100.00;100815.63;6302033;28;20128;-90
2022/12/05 08:26:40;;;;;;;13.68;8.35;;;;;;;1.24;100.00;100808.75;6315021;28;20691;-90
2022/12/05 08:29:43;;;;;;;13.55;8.50;;;;;;;1.23;100.00;100812.19;6302464;28;20046;-90
2022/12/05 08:32:45;;;;;;;14.38;8.55;;;;;;;1.29;100.00;100813.66;6309976;28;20036;-89
2022/12/05 08:35:47;;;;;;;14.90;8.02;;;;;;;1.31;100.00;100814.47;6314664;28;20032;-90
2022/12/05 08:38:54;;;;;;;13.95;8.80;;;;;;;1.33;100.00;100814.41;6313710;28;20044;-90
2022/12/05 08:41:56;;;;;;;13.00;8.95;;;;;;;1.28;100.00;100824.78;6311942;28;20473;-90
2022/12/05 08:44:57;;;;;;;15.65;9.02;;;;;;;1.27;100.00;100823.13;6312743;28;20040;-90
2022/12/05 08:48:00;;;;;;;15.57;9.50;;;;;;;1.26;100.00;100821.44;6306480;28;20570;-90
2022/12/05 08:51:10;;;;;;;17.67;10.60;;;;;;;1.25;100.00;100824.88;6314520;28;20039;-90
2022/12/05 08:54:12;;;;;;;15.95;10.15;;;;;;;1.27;100.00;100818.03;6312859;28;20089;-90
2022/12/05 08:57:15;;;;;;;15.68;9.25;;;;;;;1.28;100.00;100825.59;6293908;28;20044;-90
2022/12/05 09:00:17;;;;;;;15.73;8.95;;;;;;;1.33;100.00;100829.72;6313663;28;20044;-91
2022/12/05 09:03:19;;;;;;;19.52;9.13;;;;;;;1.39;100.00;100824.38;6314714;28;20040;-90
2022/12/05 09:06:23;;;;;;;12.75;8.52;;;;;;;1.41;100.00;100817.50;6306768;28;20040;-90
2022/12/05 09:09:25;;;;;;;16.23;9.27;;;;;;;1.48;100.00;100817.22;6311912;28;20040;-90
2022/12/05 09:12:27;;;;;;;13.13;8.63;;;;;;;1.53;100.00;100826.44;6311032;28;20040;-91
2022/12/05 09:15:30;;;;;;;13.95;8.40;;;;;;;1.57;100.00;100817.78;6312167;28;20036;-90
2022/12/05 09:18:32;;;;;;;12.80;8.50;;;;;;;1.64;100.00;100816.66;6311758;28;20383;-90
2022/12/05 09:21:34;;;;;;;13.52;8.73;;;;;;;1.69;100.00;100820.72;6312646;28;20051;-89
2022/12/05 09:24:36;;;;;;;15.00;9.45;;;;;;;1.75;100.00;100822.19;6312116;28;20723;-89
2022/12/05 09:27:38;;;;;;;14.98;9.15;;;;;;;1.77;100.00;100829.81;6311523;28;20039;-89
2022/12/05 09:30:40;;;;;;;13.77;8.52;;;;;;;1.72;100.00;100822.31;6309907;28;20036;-89
2022/12/05 09:33:42;;;;;;;15.93;8.57;;;;;;;1.75;100.00;100822.19;6310991;28;20064;-89
2022/12/05 09:36:50;;;;;;;15.18;8.95;;;;;;;1.77;100.00;100819.59;6311732;28;20064;-89
2022/12/05 09:40:02;;;;;;;14.02;8.90;;;;;;;1.79;100.00;100817.81;6310150;28;20092;-89
2022/12/05 09:43:07;;;;;;;15.07;8.95;;;;;;;1.80;100.00;100819.47;6308301;28;20056;-89
2022/12/05 09:46:42;;;;;;;14.50;8.70;;;;;;;1.80;100.00;100815.22;6306015;28;20043;-89
2022/12/05 09:50:15;;;;;;;14.27;8.93;;;;;;;1.76;100.00;100812.81;6308521;28;20040;-89
2022/12/05 09:53:32;;;;;;;13.95;8.98;;;;;;;1.76;100.00;100813.66;6312273;28;20036;-89
2022/12/05 09:56:34;;;;;;;16.73;8.43;;;;;;;1.75;100.00;100811.16;6312669;28;20044;-89
2022/12/05 09:59:36;;;;;;;14.10;9.25;;;;;;;1.76;100.00;100812.81;6312310;28;20043;-88
2022/12/05 10:03:00;;;;;;;17.92;10.20;;;;;;;1.78;100.00;100805.94;6313647;28;20421;-88
2022/12/05 10:06:15;;;;;;;16.15;9.00;;;;;;;1.81;100.00;100805.81;6313679;28;20405;-89
2022/12/05 10:09:45;;;;;;;14.93;8.70;;;;;;;1.81;100.00;100801.53;6308787;28;20537;-89
2022/12/05 10:12:50;;;;;;;12.23;8.43;;;;;;;1.80;100.00;100797.34;6310437;28;20044;-90
2022/12/05 10:16:01;;;;;;;16.58;8.95;;;;;;;1.74;100.00;100800.13;6311797;28;20036;-89
2022/12/05 10:19:11;;;;;;;15.27;9.20;;;;;;;1.80;100.00;100793.97;6310606;28;20036;-89
2022/12/05 10:22:24;;;;;;;14.55;7.95;;;;;;;1.82;100.00;100794.75;6310722;28;20043;-89
2022/12/05 10:25:27;;;;;;;15.25;9.00;;;;;;;1.91;100.00;100796.91;6311999;28;20047;-89
2022/12/05 10:28:33;;;;;;;18.45;9.07;;;;;;;1.96;100.00;100789.09;6309213;28;20089;-89
2022/12/05 10:31:38;;;;;;;13.73;8.63;;;;;;;1.94;100.00;100796.81;6311306;28;20195;-88
2022/12/05 10:34:41;;;;;;;15.05;9.13;;;;;;;1.96;100.00;100791.63;6312643;28;20036;-89
2022/12/05 10:37:48;;;;;;;16.80;9.50;;;;;;;2.02;100.00;100787.13;6311522;28;20046;-89
2022/12/05 10:40:53;;;;;;;14.55;8.40;;;;;;;2.07;100.00;100786.97;6305574;28;20063;-88
2022/12/05 10:43:57;;;;;;;14.25;9.10;;;;;;;2.07;100.00;100786.97;6309550;28;20121;-88
2022/12/05 10:47:00;;;;;;;12.68;7.93;;;;;;;2.01;100.00;100788.00;6310948;28;20047;-88
2022/12/05 10:50:06;;;;;;;11.77;8.35;;;;;;;1.97;100.00;100788.22;6310018;28;20047;-88
2022/12/05 10:53:14;;;;;;;12.38;7.82;;;;;;;1.96;100.00;100787.34;6312375;28;20040;-89
2022/12/05 10:56:45;;;;;;;13.13;8.25;;;;;;;1.93;100.00;100783.19;6296867;28;20047;-89
2022/12/05 10:59:47;;;;;;;13.60;8.20;;;;;;;1.90;100.00;100779.94;6298242;28;20055;-89
2022/12/05 11:02:50;;;;;;;13.25;7.63;;;;;;;1.85;100.00;100772.47;6311972;28;20051;-89
2022/12/05 11:05:55;;;;;;;12.23;7.25;;;;;;;1.80;100.00;100773.53;6311077;28;20588;-89
2022/12/05 11:09:04;;;;;;;12.63;7.22;;;;;;;1.76;100.00;100769.44;6308578;28;20071;-89
2022/12/05 11:12:21;;;;;;;11.20;6.75;;;;;;;1.76;100.00;100757.50;6305757;28;20055;-89
2022/12/05 11:15:26;;;;;;;11.80;6.82;;;;;;;1.77;100.00;100766.00;6311443;28;20032;-89
2022/12/05 11:18:35;;;;;;;11.30;6.63;;;;;;;1.80;100.00;100773.53;6311323;28;20110;-89
2022/12/05 11:21:43;;;;;;;13.75;6.78;;;;;;;1.82;100.00;100766.66;6295961;28;20044;-89
2022/12/05 11:24:45;;;;;;;13.15;6.95;;;;;;;1.82;100.00;100762.38;6310147;28;20595;-88
2022/12/05 11:27:47;;;;;;;9.90;6.78;;;;;;;1.83;100.00;100763.22;6311286;28;20296;-88
2022/12/05 11:31:13;;;;;;;12.68;6.95;;;;;;;1.80;100.00;100759.06;6303107;28;20046;-88
2022/12/05 11:34:21;;;;;;;11.50;6.90;;;;;;;1.73;100.00;100750.81;6303784;28;20442;-88
2022/12/05 11:37:29;;;;;;;11.70;7.63;;;;;;;1.69;100.00;100758.63;6310706;28;21444;-88
2022/12/05 11:40:55;;;;;;;10.80;6.40;;;;;;;1.67;100.00;100755.31;6311091;28;20699;-88
2022/12/05 11:44:22;;;;;;;10.40;6.55;;;;;;;1.67;100.00;100748.50;6307087;28;20073;-88
2022/12/05 11:47:50;;;;;;;10.98;6.60;;;;;;;1.77;100.00;100745.59;6310380;28;20081;-88
2022/12/05 11:51:11;;;;;;;8.85;6.35;;;;;;;1.86;100.00;100748.63;6307242;28;20036;-88
2022/12/05 11:54:39;;;;;;;11.90;7.22;;;;;;;1.87;100.00;100739.25;6309992;28;20379;-88
2022/12/05 11:58:35;;;;;;;9.90;6.78;;;;;;;1.86;100.00;100748.63;6300187;28;20071;-88
2022/12/05 12:01:37;;;;;;;9.02;5.65;;;;;;;1.83;100.00;100742.78;6305373;28;20044;-88
2022/12/05 12:04:54;;;;;;;9.50;6.50;;;;;;;1.79;100.00;100746.34;6309676;28;20512;-88
2022/12/05 12:08:29;;;;;;;8.35;6.05;;;;;;;1.77;100.00;100738.78;6302991;28;20032;-88
2022/12/05 12:11:38;;;;;;;9.30;5.72;;;;;;;1.73;100.00;100739.75;6309777;28;20042;-88
2022/12/05 12:14:52;;;;;;;8.90;5.78;;;;;;;1.67;100.00;100737.47;6310735;28;20036;-88
2022/12/05 12:18:23;;;;;;;8.13;4.80;;;;;;;1.62;100.00;100735.09;6311208;28;20051;-88
2022/12/05 12:21:59;;;;;;;10.40;5.43;;;;;;;1.62;100.00;100737.63;6309842;28;20074;-88
2022/12/05 12:25:28;;;;;;;10.00;5.53;;;;;;;1.64;100.00;100742.66;6309618;28;20549;-88
2022/12/05 12:28:44;;;;;;;6.78;5.10;;;;;;;1.60;100.00;100733.50;6295740;28;20046;-88
2022/12/05 12:32:03;;;;;;;9.90;6.40;;;;;;;1.61;100.00;100735.13;6311185;28;20127;-88
2022/12/05 12:35:30;;;;;;;7.93;5.47;;;;;;;1.61;100.00;100730.03;6314578;28;20044;-88
2022/12/05 12:38:57;;;;;;;11.52;7.35;;;;;;;1.62;100.00;100734.25;6315012;28;20099;-88
2022/12/05 12:42:26;;;;;;;9.98;6.57;;;;;;;1.63;100.00;100730.81;6311757;28;20422;-89
2022/12/05 12:45:40;;;;;;;10.35;7.30;;;;;;;1.66;100.00;100730.69;6314835;28;20073;-88
2022/12/05 12:48:51;;;;;;;8.90;5.80;;;;;;;1.67;100.00;100722.16;6313622;28;20054;-87
2022/12/05 12:52:00;;;;;;;8.82;5.03;;;;;;;1.68;100.00;100724.63;6314217;28;20059;-87
2022/12/05 12:55:46;;;;;;;10.48;6.65;;;;;;;1.65;100.00;100717.09;6305728;28;20040;-87
2022/12/05 12:59:22;;;;;;;9.45;5.80;;;;;;;1.71;100.00;100718.56;6233940;28;20109;-87
2022/12/05 13:02:43;;;;;;;8.00;5.40;;;;;;;1.72;100.00;100720.25;6213830;28;20096;-87
2022/12/05 13:05:53;;;;;;;9.52;5.68;;;;;;;1.71;100.00;100716.88;6234439;28;20097;-87
2022/12/05 13:09:13;;;;;;;10.70;6.60;;;;;;;1.76;100.00;100706.47;6211560;28;20057;-87
2022/12/05 13:12:21;;;;;;;9.93;5.80;;;;;;;1.79;100.00;100716.56;6226550;28;20589;-87
2022/12/05 13:15:33;;;;;;;11.05;7.00;;;;;;;1.76;100.00;100718.41;6243260;28;20164;-88
2022/12/05 13:18:35;;;;;;;8.73;5.60;;;;;;;1.81;100.00;100721.59;6217645;28;20590;-87
2022/12/05 13:21:37;;;;;;;8.65;5.30;;;;;;;1.84;100.00;100713.81;6216973;28;20531;-87
2022/12/05 13:24:41;;;;;;;8.63;5.20;;;;;;;1.84;100.00;100717.22;6235948;28;20099;-87
2022/12/05 13:28:07;;;;;;;7.85;5.03;;;;;;;1.80;100.00;100717.41;6215234;28;20050;-87
2022/12/05 13:31:10;;;;;;;8.38;5.13;;;;;;;1.75;100.00;100709.09;6232629;28;20045;-87
2022/12/05 13:34:32;;;;;;;8.13;5.65;;;;;;;1.71;100.00;100721.97;6266343;28;20063;-86
2022/12/05 13:44:32;;;;;;;8.73;5.97;;;;;;;1.70;100.00;100722.84;6303915;28;20169;-86
2022/12/05 13:47:49;;;;;;;7.45;5.63;;;;;;;1.68;100.00;100719.53;6303557;28;20051;-86
2022/12/05 13:51:19;;;;;;;8.48;6.13;;;;;;;1.64;100.00;100718.00;6303021;28;20051;-86
2022/12/05 13:54:26;;;;;;;7.13;5.65;;;;;;;1.63;100.00;100720.59;6302972;28;20488;-86
2022/12/05 13:57:49;;;;;;;7.63;5.93;;;;;;;1.67;100.00;100722.16;6307522;28;20502;-86
2022/12/05 14:01:23;;;;;;;8.48;5.55;;;;;;;1.66;100.00;100723.84;6309715;28;20036;-86
2022/12/05 14:04:49;;;;;;;7.93;5.82;;;;;;;1.69;100.00;100717.81;6300979;28;20048;-86
2022/12/05 14:07:53;;;;;;;8.68;5.78;;;;;;;1.71;100.00;100726.22;6306960;28;20501;-86
2022/12/05 14:11:10;;;;;;;10.05;6.20;;;;;;;1.72;100.00;100725.38;6303677;28;20369;-86
2022/12/05 14:14:12;;;;;;;9.15;5.28;;;;;;;1.73;100.00;100732.94;6307861;28;20044;-86
2022/12/05 14:17:14;;;;;;;7.95;6.10;;;;;;;1.67;100.00;100724.72;6309125;28;20063;-87
2022/12/05 14:20:45;;;;;;;10.05;6.22;;;;;;;1.67;100.00;100727.25;6306493;28;20116;-86
2022/12/05 14:24:13;;;;;;;8.68;5.78;;;;;;;1.68;100.00;100724.63;6309907;28;20052;-87
2022/12/05 14:27:54;;;;;;;7.80;5.43;;;;;;;1.60;100.00;100716.44;6306520;28;20657;-87
2022/12/05 14:31:14;;;;;;;9.30;5.80;;;;;;;1.59;100.00;100712.25;6230679;28;20077;-86
2022/12/05 14:34:30;;;;;;;9.03;5.77;;;;;;;1.60;100.00;100711.34;6224617;28;20057;-87
2022/12/05 14:37:35;;;;;;;9.27;5.75;;;;;;;1.60;100.00;100718.19;6229798;28;20162;-92
2022/12/05 14:40:43;;;;;;;7.53;5.45;;;;;;;1.60;100.00;100715.63;6234851;28;20126;-86